This is the latest recevied weather packets stored in our database for station/object OM8AKX-12. If no packets are shown the sender has not sent any weather packets the latest 10 day(s).
| Time | Temp. | Humidity | Pressure | Rain* | Wind** | Luminosity | Snow |
|---|---|---|---|---|---|---|---|
| 1778127017 | 13.89° C | 100% | 1006.6 hPa | - | - | - | - |
| 1778126117 | 13.89° C | 99% | 1006.5 hPa | - | - | - | - |
| 1778125217 | 13.89° C | 95% | 1006.6 hPa | - | - | - | - |
| 1778124317 | 14.44° C | 86% | 1006.8 hPa | - | - | - | - |
| 1778123417 | 15° C | 79% | 1006.7 hPa | - | - | - | - |
| 1778122516 | 15.56° C | 75% | 1006.7 hPa | - | - | - | - |
| 1778121616 | 15.56° C | 74% | 1006.9 hPa | - | - | - | - |
| 1778120716 | 15.56° C | 72% | 1006.8 hPa | - | - | - | - |
| 1778119816 | 15.56° C | 69% | 1006.7 hPa | - | - | - | - |
| 1778118916 | 15.56° C | 67% | 1006.5 hPa | - | - | - | - |
| 1778118016 | 16.11° C | 67% | 1006.5 hPa | - | - | - | - |
| 1778117116 | 15.56° C | 68% | 1006.3 hPa | - | - | - | - |
| 1778116216 | 15° C | 71% | 1006.1 hPa | - | - | - | - |
| 1778115316 | 15° C | 72% | 1005.9 hPa | - | - | - | - |
| 1778114416 | 15° C | 72% | 1005.8 hPa | - | - | - | - |
| 1778113516 | 15.56° C | 68% | 1005.8 hPa | - | - | - | - |
| 1778112616 | 16.11° C | 67% | 1005.8 hPa | - | - | - | - |
| 1778111716 | 16.11° C | 66% | 1005.8 hPa | - | - | - | - |
| 1778110816 | 16.11° C | 67% | 1005.7 hPa | - | - | - | - |
| 1778109916 | 14.44° C | 76% | 1005.8 hPa | - | - | - | - |
| 1778109016 | 14.44° C | 76% | 1005.7 hPa | - | - | - | - |
| 1778108116 | 15° C | 70% | 1005.7 hPa | - | - | - | - |
| 1778107216 | 16.11° C | 64% | 1005.7 hPa | - | - | - | - |
| 1778106316 | 17.22° C | 62% | 1005.7 hPa | - | - | - | - |
| 1778105416 | 15.56° C | 67% | 1005.8 hPa | - | - | - | - |
* Rain since midnight (hover to see other rain measurements)
** Current wind speed in m/s (hover to see current wind gust speed)